Poruka od KP4TP-2 - pregled karte · informacija · telemetrija · vrijeme · osnovni · status · beacons · poruke · bilteni · pretraži · kretanje · Moj račun
Pozivni znak:
Prikazi:

Ucitavanje message paketa...

APRS poruka je spremljena 14 dana. Moguce je pretrazivanje upotrebom zamjenski znakova (*?) iza pocetka oznake.

2021-06-15 11:07:31 EDT: KP4TP-2>KP4CA-9: Saludos Carlos! Que HT estas usando en el carro?
2021-06-15 18:17:04 EDT: KP4CA>KP4TP-2: Saludos Jose. AnyTone AT-D878UVII Plus via DMR Plus
2021-06-15 18:22:41 EDT: KP4TP-2>KP4CA: Gracias Carlos. Muy buen equipo.
2021-06-15 18:24:34 EDT: KP4CA>KP4TP-2: Si, muy bueno. Es la nueva version con RX APRS. Highly recommended.
2021-06-15 20:35:17 EDT: KP4TP-2>KP4CA: Voy a ver los reviews, especialmente por lo de APRS (roaming?)
2021-06-15 20:58:02 EDT: KP4CA>KP4TP-2: Ve a www.bridgecomsystems.com. Buena info sobre el radio.
2021-06-15 21:03:33 EDT: KP4CA>KP4TP-2: Buen video sobre el radio en: https://youtu.be/oSmdaErbWjM
2021-06-15 21:16:55 EDT: KP4TP-2>KP4CA: OK. Gracias Carlos.
2021-06-15 21:18:21 EDT: KP4CA>KP4TP-2: RR Jose. Buenas noches. 73
2021-06-15 21:19:49 EDT: KP4TP-2>KP4CA: Igual para ti 73
2021-06-17 07:36:49 EDT: KP4TP-2>WXBOT: kp4tp
2021-06-17 07:36:50 EDT: WXBOT>KP4TP-2: Sorry, unable to get a forecast for location 18.00000/66.00000
2021-06-17 07:37:14 EDT: KP4TP-2>WXBOT: PR
2021-06-17 07:37:16 EDT: WXBOT>KP4TP-2: 2 Miles SW San Juan PR. Hazardous Weather Outlook, Today,Scattered
2021-06-17 07:37:21 EDT: WXBOT>KP4TP-2: Showers 30% High 90
2021-06-17 08:59:57 EDT: KP4TP-2>WXBOT: Aguadilla, PR
2021-06-17 09:00:00 EDT: WXBOT>KP4TP-2: 2 Miles SW San Juan PR. Hazardous Weather Outlook, Today,Scattered
2021-06-17 09:00:05 EDT: WXBOT>KP4TP-2: Showers 30% High 90
2021-06-18 09:52:25 EDT: KP4TP-2>WXBOT: San Juan PR
2021-06-18 09:52:27 EDT: WXBOT>KP4TP-2: KSAN 181251Z 17003KT 6SM BR OVC007 18/16 A2982 RMK AO2 SLP097 VCSH
2021-06-18 09:52:32 EDT: WXBOT>KP4TP-2: NE T01830161
2021-06-18 09:53:02 EDT: KP4TP-2>WXBOT: San Juan PR
2021-06-18 09:53:03 EDT: WXBOT>KP4TP-2: KSAN 181251Z 17003KT 6SM BR OVC007 18/16 A2982 RMK AO2 SLP097 VCSH
2021-06-18 09:53:08 EDT: WXBOT>KP4TP-2: NE T01830161
2021-06-18 09:53:44 EDT: KP4TP-2>WXBOT: San Juan, PR
2021-06-18 09:53:45 EDT: WXBOT>KP4TP-2: KSAN 181251Z 17003KT 6SM BR OVC007 18/16 A2982 RMK AO2 SLP097 VCSH
2021-06-18 09:53:50 EDT: WXBOT>KP4TP-2: NE T01830161
2021-06-19 08:48:51 EDT: KP4TP-2>WXBOT: San Juan, PR
2021-06-19 08:48:53 EDT: WXBOT>KP4TP-2: KSAN 191151Z 00000KT 10SM OVC010 19/15 A2980 RMK AO2 SLP092 T018901
2021-06-19 08:48:58 EDT: WXBOT>KP4TP-2: 50 10194 20189 56004
2021-06-19 08:49:33 EDT: KP4TP-2>WXBOT: kp4tp
2021-06-19 08:49:34 EDT: WXBOT>KP4TP-2: Sorry, unable to get a forecast for location 18.00000/66.00000
2021-06-19 08:49:56 EDT: KP4TP-2>WXBOT: kp4tp-3
2021-06-19 08:49:57 EDT: WXBOT>KP4TP-2: 2 Miles SW San Juan PR. Hazardous Weather Outlook, Today,Isolated S
2021-06-19 08:50:02 EDT: WXBOT>KP4TP-2: howers 20% High 90
2021-06-19 08:50:19 EDT: KP4TP-2>WXBOT: kp4ca
2021-06-19 08:50:21 EDT: WXBOT>KP4TP-2: Anasco PR. Hazardous Weather Outlook, Today,Mostly Sunny then Scatt
2021-06-19 08:50:26 EDT: WXBOT>KP4TP-2: ered Showers 50% High 86
2021-06-19 08:52:43 EDT: KP4TP-2>WHO-IS: kp4tp
2021-06-19 08:52:43 EDT: WHO-IS>KP4TP-2: A/JOSE M PALAU/PR/United States
2021-06-19 08:53:16 EDT: KP4TP-2>WHO-IS: L kp4tp
2021-06-19 08:53:16 EDT: WHO-IS>KP4TP-2: format is an invalid command!
2021-06-19 08:53:35 EDT: KP4TP-2>WHO-IS: kp4tp L
2021-06-19 08:53:35 EDT: WHO-IS>KP4TP-2: A/JOSE M PALAU/PR/United States
2021-06-19 08:54:46 EDT: KP4TP-2>WXBOT: RAMEY
2021-06-19 08:54:48 EDT: WXBOT>KP4TP-2: 2 Miles NNW Caban PR. Hazardous Weather Outlook, Today,Mostly Sunny
2021-06-19 08:54:53 EDT: WXBOT>KP4TP-2: then Scattered Showers 50% High 85
2021-06-19 08:56:03 EDT: KP4TP-2>WXBOT: kp4mmm
2021-06-19 08:56:05 EDT: WXBOT>KP4TP-2: 2 Miles SSE San Juan PR. Hazardous Weather Outlook, Today,Isolated
2021-06-19 08:56:10 EDT: WXBOT>KP4TP-2: Showers 20% High 90
< prijasnji
User guide · FAQ · Blog · Diskusijska grupa · Povezivanje sa aprs.fi · AIS stranice · Status servisa · Statistika base · Savjeti na aprs.fi · Tehnicki detalji · API · Izmjena dnevnika · Planirane promjene · Zasluge i zahvale · Uvjeti servisa · iPhone/iPad APRS